Time;durP1;ratioP1;P1;durP2;ratioP2;P2;SDS_P1;SDS_P2;PMS_P1;PMS_P2;Temp;Humidity;BMP_temperature;BMP_pressure;BME280_temperature;BME280_humidity;BME280_pressure;Samples;Min_cycle;Max_cycle;Signal;HPM_P1;HPM_P2
2022/04/04 00:01:29;;;;;;;10.18;5.03;;;;;;;2.28;54.08;100272.97;6309068;28;20098;-70
2022/04/04 00:04:30;;;;;;;7.75;4.53;;;;;;;2.19;54.16;100274.03;6296675;28;20105;-70
2022/04/04 00:07:31;;;;;;;13.63;5.28;;;;;;;2.24;55.11;100271.34;6315628;28;20083;-71
2022/04/04 00:10:32;;;;;;;9.65;5.10;;;;;;;2.25;57.00;100271.34;6265738;28;20052;-71
2022/04/04 00:13:34;;;;;;;9.38;5.15;;;;;;;2.22;54.81;100276.53;6298889;28;20048;-71
2022/04/04 00:16:35;;;;;;;8.63;4.80;;;;;;;2.25;55.91;100280.78;6298962;28;20544;-71
2022/04/04 00:19:36;;;;;;;6.43;4.57;;;;;;;2.21;55.71;100280.84;6299740;28;20049;-70
2022/04/04 00:22:37;;;;;;;11.82;5.25;;;;;;;2.21;60.11;100285.16;6315603;28;20049;-71
2022/04/04 00:25:42;;;;;;;8.60;5.22;;;;;;;2.19;56.09;100277.47;6299665;28;20052;-71
2022/04/04 00:28:43;;;;;;;6.43;4.38;;;;;;;2.08;54.72;100281.16;6298800;28;20068;-71
2022/04/04 00:31:44;;;;;;;8.63;4.72;;;;;;;2.14;55.38;100284.47;6297255;28;20070;-71
2022/04/04 00:34:45;;;;;;;8.80;4.60;;;;;;;2.12;56.13;100277.63;6299481;28;20480;-71
2022/04/04 00:37:46;;;;;;;9.98;4.65;;;;;;;2.18;54.45;100285.22;6297777;28;20070;-71
2022/04/04 00:40:46;;;;;;;7.80;4.40;;;;;;;2.16;54.72;100282.69;6297242;28;20040;-70
2022/04/04 00:43:52;;;;;;;10.20;4.90;;;;;;;2.17;54.85;100275.81;6310202;28;20068;-72
2022/04/04 00:46:52;;;;;;;9.43;4.25;;;;;;;2.19;57.47;100285.19;6324374;28;20083;-72
2022/04/04 00:49:53;;;;;;;8.85;4.57;;;;;;;2.21;56.20;100277.44;6322667;28;20048;-71
2022/04/04 00:52:54;;;;;;;9.05;4.55;;;;;;;2.23;55.77;100278.25;6289697;28;20040;-75
2022/04/04 00:55:56;;;;;;;5.63;4.30;;;;;;;2.24;56.80;100271.34;6306626;28;20040;-75
2022/04/04 00:58:57;;;;;;;15.70;4.60;;;;;;;2.23;54.80;100273.09;6324756;28;20086;-75
2022/04/04 01:01:57;;;;;;;9.60;4.63;;;;;;;2.27;57.87;100282.44;6323096;28;20040;-75
2022/04/04 01:04:58;;;;;;;8.10;4.50;;;;;;;2.25;59.53;100284.19;6323267;28;20102;-75
2022/04/04 01:07:59;;;;;;;7.50;4.43;;;;;;;2.25;60.56;100273.91;6324080;28;20056;-75
2022/04/04 01:11:00;;;;;;;8.35;4.70;;;;;;;2.25;61.14;100273.06;6323039;28;20088;-75
2022/04/04 01:14:01;;;;;;;7.60;4.78;;;;;;;2.23;59.64;100278.25;6324280;28;20092;-75
2022/04/04 01:17:02;;;;;;;8.35;4.55;;;;;;;2.27;58.69;100276.44;6305817;28;20044;-75
2022/04/04 01:20:05;;;;;;;7.70;4.80;;;;;;;2.19;58.04;100279.19;6323833;28;20067;-74
2022/04/04 01:23:06;;;;;;;7.45;4.47;;;;;;;2.17;58.25;100280.97;6322706;28;20062;-74
2022/04/04 01:26:11;;;;;;;8.02;4.97;;;;;;;2.20;59.69;100278.28;6323605;28;20036;-74
2022/04/04 01:29:12;;;;;;;9.40;5.55;;;;;;;2.15;58.55;100277.56;6322806;28;20032;-74
2022/04/04 01:32:14;;;;;;;8.75;4.65;;;;;;;2.11;57.86;100275.94;6322502;28;20036;-74
2022/04/04 01:35:16;;;;;;;10.77;5.15;;;;;;;2.05;57.61;100273.50;6322684;28;20040;-74
2022/04/04 01:38:17;;;;;;;7.50;5.05;;;;;;;1.99;58.42;100261.63;6322430;28;20044;-74
2022/04/04 01:41:18;;;;;;;7.32;4.97;;;;;;;2.00;58.01;100266.75;6322181;28;20472;-74
2022/04/04 01:44:19;;;;;;;11.38;5.07;;;;;;;1.95;58.09;100262.56;6322206;28;20051;-74
2022/04/04 01:47:20;;;;;;;10.05;5.00;;;;;;;1.98;58.85;100258.19;6323471;28;20548;-74
2022/04/04 01:50:21;;;;;;;11.70;5.80;;;;;;;1.96;61.12;100265.13;6323259;28;20047;-74
2022/04/04 01:53:29;;;;;;;9.85;5.75;;;;;;;1.93;62.72;100264.31;6322973;28;20481;-74
2022/04/04 01:56:31;;;;;;;9.80;5.47;;;;;;;1.92;63.27;100260.91;6321965;28;20044;-74
2022/04/04 01:59:31;;;;;;;11.27;5.15;;;;;;;1.84;63.24;100264.53;6304922;28;20165;-74
2022/04/04 02:02:32;;;;;;;12.00;5.57;;;;;;;1.80;62.24;100264.59;6322057;28;20040;-74
2022/04/04 02:05:33;;;;;;;14.52;7.22;;;;;;;1.80;61.23;100267.16;6321487;28;20075;-74
2022/04/04 02:08:35;;;;;;;12.55;7.25;;;;;;;1.75;60.09;100265.56;6321514;28;20142;-75
2022/04/04 02:11:37;;;;;;;13.52;7.28;;;;;;;1.71;61.17;100258.78;6322932;28;20048;-75
2022/04/04 02:14:37;;;;;;;10.50;6.10;;;;;;;1.70;61.46;100262.25;6322568;28;20670;-74
2022/04/04 02:17:39;;;;;;;9.45;6.28;;;;;;;1.70;61.18;100255.38;6321488;28;20097;-74
2022/04/04 02:20:40;;;;;;;9.50;5.80;;;;;;;1.69;61.70;100257.97;6322346;28;20043;-74
2022/04/04 02:23:41;;;;;;;13.80;5.90;;;;;;;1.69;61.56;100255.41;6304551;28;20066;-74
2022/04/04 02:26:42;;;;;;;12.93;6.32;;;;;;;1.70;63.18;100257.94;6337335;28;20044;-74
2022/04/04 02:29:43;;;;;;;10.18;5.55;;;;;;;1.68;62.90;100256.28;6304038;28;20097;-75
2022/04/04 02:32:44;;;;;;;13.48;5.95;;;;;;;1.69;66.77;100251.13;6321025;28;20494;-74
2022/04/04 02:35:45;;;;;;;11.80;6.25;;;;;;;1.64;63.33;100252.09;6311675;28;20051;-75
2022/04/04 02:38:46;;;;;;;20.92;10.10;;;;;;;1.62;63.23;100257.25;6295850;28;20128;-75
2022/04/04 02:41:47;;;;;;;22.67;10.73;;;;;;;1.57;63.21;100259.94;6312538;28;20194;-75
2022/04/04 02:44:48;;;;;;;18.13;9.20;;;;;;;1.57;63.37;100262.50;6312548;28;20044;-75
2022/04/04 02:47:49;;;;;;;12.77;7.72;;;;;;;1.53;63.01;100253.16;6312081;28;20492;-71
2022/04/04 02:50:50;;;;;;;11.18;6.93;;;;;;;1.54;63.19;100254.00;6295295;28;20044;-71
2022/04/04 02:53:51;;;;;;;9.52;5.88;;;;;;;1.57;64.46;100254.78;6296510;28;20048;-71
2022/04/04 02:56:52;;;;;;;15.55;6.53;;;;;;;1.59;65.67;100259.91;6296719;28;20496;-71
2022/04/04 02:59:53;;;;;;;12.48;7.22;;;;;;;1.58;69.06;100261.63;6321406;28;20559;-71
2022/04/04 03:02:55;;;;;;;12.10;7.18;;;;;;;1.57;73.29;100261.69;6321498;28;20044;-71
2022/04/04 03:05:56;;;;;;;12.02;6.88;;;;;;;1.48;71.33;100252.41;6320136;28;20059;-70
2022/04/04 03:08:57;;;;;;;11.75;5.78;;;;;;;1.48;66.70;100264.41;6321231;28;20181;-71
2022/04/04 03:11:58;;;;;;;11.48;6.30;;;;;;;1.39;63.55;100262.88;6321284;28;20044;-71
2022/04/04 03:14:59;;;;;;;11.65;7.15;;;;;;;1.36;63.83;100268.94;6319924;28;20101;-71
2022/04/04 03:18:00;;;;;;;11.27;7.38;;;;;;;1.40;65.52;100267.13;6320286;28;20040;-70
2022/04/04 03:21:03;;;;;;;11.73;6.38;;;;;;;1.40;63.69;100264.56;6319755;28;20044;-70
2022/04/04 03:24:05;;;;;;;13.60;6.25;;;;;;;1.44;65.17;100267.94;6320235;28;20051;-71
2022/04/04 03:27:06;;;;;;;10.70;6.07;;;;;;;1.48;67.21;100274.72;6321113;28;20508;-70
2022/04/04 03:30:10;;;;;;;13.45;6.00;;;;;;;1.45;68.70;100267.91;6319951;28;20044;-70
2022/04/04 03:33:12;;;;;;;18.67;10.77;;;;;;;1.42;67.93;100275.66;6321078;28;20157;-71
2022/04/04 03:36:13;;;;;;;13.45;7.28;;;;;;;1.36;63.72;100274.09;6321442;28;20500;-70
2022/04/04 03:39:16;;;;;;;11.38;5.72;;;;;;;1.39;63.23;100273.16;6322220;28;20051;-71
2022/04/04 03:42:17;;;;;;;9.70;5.57;;;;;;;1.40;63.77;100268.00;6317882;28;20388;-70
2022/04/04 03:45:19;;;;;;;12.25;5.65;;;;;;;1.36;63.68;100273.22;6300888;28;20064;-71
2022/04/04 03:48:20;;;;;;;9.05;5.80;;;;;;;1.34;63.88;100272.41;6300825;28;20040;-71
2022/04/04 03:51:20;;;;;;;9.52;5.75;;;;;;;1.35;63.49;100274.09;6282775;28;20405;-70
2022/04/04 03:54:21;;;;;;;10.05;6.05;;;;;;;1.34;63.40;100277.53;6300529;28;20067;-71
2022/04/04 03:57:23;;;;;;;11.95;6.60;;;;;;;1.33;62.93;100270.72;6300960;28;20051;-74
2022/04/04 04:00:25;;;;;;;12.40;6.38;;;;;;;1.29;62.33;100269.91;6300462;28;20049;-74
2022/04/04 04:03:25;;;;;;;9.95;6.05;;;;;;;1.32;63.24;100269.00;6283401;28;20080;-74
2022/04/04 04:06:26;;;;;;;12.23;6.10;;;;;;;1.30;62.82;100273.38;6316408;28;20109;-74
2022/04/04 04:09:27;;;;;;;11.60;5.40;;;;;;;1.29;63.08;100271.66;6299058;28;20123;-74
2022/04/04 04:12:28;;;;;;;9.13;6.10;;;;;;;1.30;61.98;100279.34;6300403;28;20171;-74
2022/04/04 04:15:29;;;;;;;9.85;5.45;;;;;;;1.29;61.95;100271.66;6299246;28;20044;-75
2022/04/04 04:18:30;;;;;;;14.30;5.65;;;;;;;1.37;61.40;100270.63;6299048;28;20040;-75
2022/04/04 04:21:31;;;;;;;12.82;5.90;;;;;;;1.32;61.13;100269.00;6311011;28;20043;-74
2022/04/04 04:24:32;;;;;;;11.48;5.53;;;;;;;1.37;60.59;100268.06;6306917;28;20102;-72
2022/04/04 04:27:34;;;;;;;11.07;5.90;;;;;;;1.40;61.92;100264.56;6324216;28;20044;-73
2022/04/04 04:30:35;;;;;;;10.77;5.82;;;;;;;1.42;60.68;100275.66;6320079;28;20059;-72
2022/04/04 04:33:37;;;;;;;9.77;5.20;;;;;;;1.31;60.52;100264.75;6300505;28;20048;-72
2022/04/04 04:36:39;;;;;;;9.38;5.30;;;;;;;1.37;60.44;100274.94;6306867;28;20048;-71
2022/04/04 04:39:41;;;;;;;11.23;6.00;;;;;;;1.34;59.70;100264.69;6324767;28;20047;-71
2022/04/04 04:42:43;;;;;;;10.32;6.22;;;;;;;1.37;59.45;100269.78;6306414;28;20036;-72
2022/04/04 04:45:45;;;;;;;13.90;8.10;;;;;;;1.41;59.19;100271.41;6314910;28;20082;-71
2022/04/04 04:48:46;;;;;;;15.00;8.30;;;;;;;1.39;60.15;100278.31;6314960;28;20047;-71
2022/04/04 04:51:47;;;;;;;11.90;6.82;;;;;;;1.42;61.17;100278.25;6297232;28;20052;-71
2022/04/04 04:54:48;;;;;;;16.77;7.75;;;;;;;1.48;61.11;100278.13;6297783;28;20643;-71
2022/04/04 04:57:50;;;;;;;13.05;6.93;;;;;;;1.46;59.18;100273.88;6299176;28;20045;-72
2022/04/04 05:00:50;;;;;;;14.30;7.75;;;;;;;1.60;60.49;100274.47;6297585;28;20119;-71
2022/04/04 05:03:51;;;;;;;19.42;9.52;;;;;;;1.69;59.55;100283.69;6301679;28;20040;-71
2022/04/04 05:06:52;;;;;;;19.40;9.70;;;;;;;1.72;58.16;100284.50;6306108;28;20119;-71
2022/04/04 05:09:53;;;;;;;17.55;9.60;;;;;;;1.86;59.82;100275.66;6305011;28;20484;-70
2022/04/04 05:12:54;;;;;;;16.50;9.70;;;;;;;1.87;58.97;100279.91;6312227;28;20036;-71
2022/04/04 05:15:54;;;;;;;17.23;9.40;;;;;;;1.96;58.35;100282.28;6296997;28;20446;-71
2022/04/04 05:18:58;;;;;;;20.50;9.48;;;;;;;2.06;59.67;100285.47;6319289;28;20040;-72
2022/04/04 05:21:59;;;;;;;21.88;9.25;;;;;;;2.26;57.71;100293.59;6318844;28;20043;-71
2022/04/04 05:24:59;;;;;;;16.58;9.48;;;;;;;2.35;55.67;100293.41;6321046;28;20044;-71
2022/04/04 05:28:00;;;;;;;15.95;9.05;;;;;;;2.34;54.66;100301.16;6320692;28;20043;-71
2022/04/04 05:31:04;;;;;;;19.70;9.63;;;;;;;2.38;56.76;100298.47;6322107;28;20048;-71
2022/04/04 05:34:05;;;;;;;17.98;9.55;;;;;;;2.42;56.65;100305.25;6304297;28;20104;-71
2022/04/04 05:37:06;;;;;;;14.85;7.97;;;;;;;2.45;53.32;100306.94;6321999;28;20070;-71
2022/04/04 05:40:07;;;;;;;13.43;7.95;;;;;;;2.42;51.70;100312.97;6320629;28;20055;-71
2022/04/04 05:43:08;;;;;;;21.63;8.85;;;;;;;2.37;52.24;100312.25;6321599;28;20408;-72
2022/04/04 05:46:10;;;;;;;16.55;7.80;;;;;;;2.40;52.25;100317.31;6321755;28;20515;-72
2022/04/04 05:49:11;;;;;;;12.27;7.35;;;;;;;2.39;52.37;100320.78;6320483;28;20365;-71
2022/04/04 05:52:13;;;;;;;12.27;6.97;;;;;;;2.60;52.90;100310.84;6320552;28;20048;-71
2022/04/04 05:55:14;;;;;;;19.10;7.10;;;;;;;2.73;52.48;100307.09;6320197;28;20040;-71
2022/04/04 05:58:15;;;;;;;15.80;7.25;;;;;;;2.78;54.87;100310.41;6286907;28;20063;-71
2022/04/04 06:01:16;;;;;;;12.65;7.78;;;;;;;2.80;52.43;100312.94;6320100;28;20396;-71
2022/04/04 06:04:17;;;;;;;11.63;6.87;;;;;;;2.99;50.78;100321.91;6320137;28;20137;-71
2022/04/04 06:07:18;;;;;;;16.52;8.00;;;;;;;3.15;52.59;100326.66;6319960;28;20044;-73
2022/04/04 06:10:19;;;;;;;15.95;7.03;;;;;;;3.17;49.66;100319.72;6321225;28;20044;-71
2022/04/04 06:13:21;;;;;;;11.65;6.13;;;;;;;3.14;49.85;100325.81;6321097;28;20045;-72
2022/04/04 06:16:22;;;;;;;13.10;6.60;;;;;;;3.04;51.23;100326.94;6319854;28;20051;-71
2022/04/04 06:19:22;;;;;;;12.80;6.97;;;;;;;3.09;50.05;100326.81;6319795;28;20032;-71
2022/04/04 06:22:24;;;;;;;12.68;6.80;;;;;;;2.98;52.96;100334.81;6319791;28;20036;-71
2022/04/04 06:25:24;;;;;;;14.55;7.40;;;;;;;3.26;49.76;100334.13;6319676;28;20494;-71
2022/04/04 06:28:27;;;;;;;10.05;6.25;;;;;;;3.27;47.32;100336.66;6319604;28;20043;-71
2022/04/04 06:31:28;;;;;;;10.82;6.40;;;;;;;3.42;48.08;100335.41;6314192;28;20116;-72
2022/04/04 06:34:29;;;;;;;20.48;6.85;;;;;;;3.22;47.26;100336.78;6302770;28;20036;-72
2022/04/04 06:37:31;;;;;;;13.38;6.85;;;;;;;3.21;48.14;100332.53;6320807;28;20111;-71
2022/04/04 06:40:32;;;;;;;15.25;6.07;;;;;;;3.50;46.93;100337.75;6316540;28;20040;-71
2022/04/04 06:43:33;;;;;;;10.10;5.88;;;;;;;3.65;47.43;100339.94;6295437;28;20091;-72
2022/04/04 06:46:37;;;;;;;11.40;6.13;;;;;;;3.76;47.45;100339.63;6294455;28;20052;-72
2022/04/04 06:49:38;;;;;;;11.43;6.78;;;;;;;3.93;47.57;100345.19;6294278;28;20497;-71
2022/04/04 06:52:40;;;;;;;7.57;4.65;;;;;;;3.83;43.33;100342.00;6277735;28;20041;-72
2022/04/04 06:55:42;;;;;;;;;;;;;;;3.90;44.62;100349.56;6311163;28;20485;-72
2022/04/04 06:58:42;;;;;;;6.68;4.53;;;;;;;3.73;45.75;100350.06;6294287;28;19974;-72
2022/04/04 07:01:44;;;;;;;8.07;4.30;;;;;;;3.78;45.48;100349.00;6310776;28;20047;-72
2022/04/04 07:04:45;;;;;;;15.82;8.50;;;;;;;4.15;46.24;100352.28;6304379;28;20051;-71
2022/04/04 07:07:46;;;;;;;10.48;5.78;;;;;;;4.37;43.70;100355.06;6308162;28;20416;-71
2022/04/04 07:10:48;;;;;;;7.47;4.30;;;;;;;3.96;42.00;100359.72;6321795;28;20100;-72
2022/04/04 07:13:49;;;;;;;9.18;4.63;;;;;;;4.09;44.03;100355.88;6284728;28;20048;-71
2022/04/04 07:16:53;;;;;;;10.15;4.57;;;;;;;4.42;43.25;100356.59;6293887;28;20672;-71
2022/04/04 07:19:54;;;;;;;8.85;5.28;;;;;;;4.42;43.91;100364.34;6310391;28;20040;-72
2022/04/04 07:22:55;;;;;;;7.80;4.85;;;;;;;4.91;44.12;100367.13;6305771;28;20071;-72
2022/04/04 07:25:56;;;;;;;19.73;9.88;;;;;;;5.24;42.99;100370.34;6318844;28;20115;-71
2022/04/04 07:28:56;;;;;;;12.85;4.18;;;;;;;5.40;40.50;100378.44;6319975;28;20043;-72
2022/04/04 07:31:58;;;;;;;7.15;3.95;;;;;;;5.31;40.37;100380.47;6320023;28;20087;-76
2022/04/04 07:34:59;;;;;;;8.65;4.70;;;;;;;5.08;40.29;100381.25;6318644;28;20036;-76
2022/04/04 07:38:00;;;;;;;12.15;4.75;;;;;;;5.07;40.14;100383.00;6299740;28;20144;-76
2022/04/04 07:41:00;;;;;;;7.50;4.15;;;;;;;5.10;40.66;100384.63;6302550;28;20407;-75
2022/04/04 07:44:01;;;;;;;7.90;4.50;;;;;;;5.08;39.99;100383.84;6293344;28;20043;-76
2022/04/04 07:47:03;;;;;;;7.88;4.70;;;;;;;5.00;42.79;100382.38;6293527;28;20041;-72
2022/04/04 07:50:06;;;;;;;8.98;4.55;;;;;;;4.72;40.71;100369.47;6294605;28;20138;-71
2022/04/04 07:53:07;;;;;;;8.18;4.68;;;;;;;5.06;43.19;100373.53;6293403;28;20117;-71
2022/04/04 07:56:08;;;;;;;10.40;6.78;;;;;;;5.22;46.03;100372.13;6309853;28;20654;-71
2022/04/04 07:59:09;;;;;;;7.57;4.80;;;;;;;5.49;42.14;100379.00;6310048;28;20051;-71
2022/04/04 08:02:10;;;;;;;7.30;4.72;;;;;;;5.44;41.07;100392.13;6294241;28;20068;-72
2022/04/04 08:05:11;;;;;;;8.43;4.40;;;;;;;5.56;42.85;100396.00;6276539;28;20132;-71
2022/04/04 08:08:12;;;;;;;8.43;4.43;;;;;;;5.43;38.98;100385.22;6292998;28;20138;-71
2022/04/04 08:11:13;;;;;;;6.43;3.85;;;;;;;5.24;40.28;100388.44;6293107;28;20053;-72
2022/04/04 08:14:14;;;;;;;7.57;4.15;;;;;;;5.25;40.60;100387.56;6293041;28;20051;-72
2022/04/04 08:17:15;;;;;;;7.85;4.65;;;;;;;5.49;39.47;100387.59;6293034;28;20404;-72
2022/04/04 08:20:17;;;;;;;8.38;4.38;;;;;;;5.32;40.06;100385.59;6309748;28;20127;-72
2022/04/04 08:23:18;;;;;;;5.60;4.22;;;;;;;5.36;41.79;100383.75;6309647;28;20047;-72
2022/04/04 08:26:19;;;;;;;18.40;11.55;;;;;;;6.10;40.84;100382.00;6295069;28;20049;-72
2022/04/04 08:29:20;;;;;;;14.70;8.30;;;;;;;6.57;41.30;100381.09;6297342;28;20404;-72
2022/04/04 08:32:21;;;;;;;25.77;10.25;;;;;;;6.77;38.47;100375.94;6298561;28;20044;-72
2022/04/04 08:35:22;;;;;;;39.78;14.98;;;;;;;7.09;40.31;100373.81;6298344;28;20539;-72
2022/04/04 08:38:23;;;;;;;27.90;14.02;;;;;;;7.26;40.59;100365.31;6280543;28;20048;-72
2022/04/04 08:41:29;;;;;;;9.70;4.88;;;;;;;7.26;38.72;100368.75;6297069;28;20048;-72
2022/04/04 08:44:30;;;;;;;6.80;4.63;;;;;;;7.42;39.06;100373.31;6300241;28;20549;-71
2022/04/04 08:47:32;;;;;;;7.13;4.45;;;;;;;6.83;37.77;100364.50;6298731;28;20036;-72
2022/04/04 08:50:33;;;;;;;8.82;4.90;;;;;;;6.51;37.72;100368.38;6298317;28;20486;-71
2022/04/04 08:53:38;;;;;;;7.75;4.53;;;;;;;5.33;41.43;100370.91;6298232;28;20118;-72
2022/04/04 08:56:39;;;;;;;7.10;4.95;;;;;;;5.33;41.62;100369.16;6303393;28;20449;-71
2022/04/04 08:59:40;;;;;;;14.20;4.55;;;;;;;5.77;40.41;100373.72;6299410;28;20044;-71
2022/04/04 09:02:54;;;;;;;8.48;4.90;;;;;;;5.54;41.53;100375.38;6320913;28;20051;-71
2022/04/04 09:05:58;;;;;;;9.00;4.72;;;;;;;5.73;40.94;100369.53;6321420;28;20476;-71
2022/04/04 09:08:58;;;;;;;8.45;5.30;;;;;;;5.76;39.55;100366.81;6322101;28;20056;-71
2022/04/04 09:12:11;;;;;;;9.55;5.05;;;;;;;5.69;42.30;100360.19;6304506;28;20083;-71
2022/04/04 09:15:12;;;;;;;9.48;6.28;;;;;;;5.82;41.46;100362.25;6321952;28;20044;-71
2022/04/04 09:18:13;;;;;;;9.95;5.30;;;;;;;5.56;41.11;100359.75;6322407;28;20054;-71
2022/04/04 09:21:20;;;;;;;11.35;4.88;;;;;;;5.77;41.67;100356.41;6296944;28;20044;-71
2022/04/04 09:24:21;;;;;;;10.00;5.20;;;;;;;5.77;41.63;100353.81;6296011;28;20044;-71
2022/04/04 09:27:26;;;;;;;10.05;5.63;;;;;;;6.50;40.59;100358.91;6295591;28;20040;-72
2022/04/04 09:30:27;;;;;;;9.98;5.22;;;;;;;6.84;40.79;100361.00;6313354;28;20048;-76
2022/04/04 09:33:39;;;;;;;10.50;5.60;;;;;;;6.93;41.71;100355.44;6297822;28;20480;-76
2022/04/04 09:36:46;;;;;;;11.40;5.40;;;;;;;6.08;41.08;100355.31;6317374;28;20498;-76
2022/04/04 09:40:00;;;;;;;6.65;4.88;;;;;;;6.53;40.35;100348.44;6322234;28;20183;-76
2022/04/04 09:43:01;;;;;;;7.78;4.90;;;;;;;6.70;42.09;100342.56;6322972;28;20127;-76
2022/04/04 09:46:11;;;;;;;9.27;5.40;;;;;;;6.35;40.84;100350.81;6322463;28;20040;-76
2022/04/04 09:49:16;;;;;;;8.32;5.00;;;;;;;6.00;42.14;100342.66;6304344;28;20086;-76
2022/04/04 09:52:17;;;;;;;9.23;4.93;;;;;;;6.00;43.53;100350.41;6314535;28;20060;-76
2022/04/04 09:55:28;;;;;;;8.50;5.38;;;;;;;5.93;42.83;100341.16;6320488;28;20036;-76
2022/04/04 09:58:31;;;;;;;12.70;5.78;;;;;;;6.04;42.87;100340.78;6306442;28;20044;-76
2022/04/04 10:01:33;;;;;;;13.95;6.20;;;;;;;6.14;44.57;100342.13;6300800;28;20575;-76
2022/04/04 10:04:35;;;;;;;9.80;5.70;;;;;;;5.66;44.92;100340.41;6323670;28;20046;-76
2022/04/04 10:07:36;;;;;;;;;;;;;;;5.96;43.79;100327.28;6322942;28;20056;-76
2022/04/04 10:10:38;;;;;;;10.70;5.18;;;;;;;5.64;43.47;100330.13;6314632;28;19955;-76
2022/04/04 10:13:39;;;;;;;9.32;5.07;;;;;;;5.84;44.13;100331.13;6301291;28;20109;-71
2022/04/04 10:16:40;;;;;;;8.77;5.22;;;;;;;5.76;42.72;100326.22;6314951;28;20476;-72
2022/04/04 10:19:42;;;;;;;8.40;5.10;;;;;;;5.74;45.29;100322.84;6321639;28;20067;-71
2022/04/04 10:22:46;;;;;;;11.10;5.45;;;;;;;6.09;44.02;100323.31;6337063;28;20500;-71
2022/04/04 10:25:51;;;;;;;9.10;5.40;;;;;;;5.98;41.61;100320.31;6310631;28;20052;-72
2022/04/04 10:29:10;;;;;;;10.10;5.30;;;;;;;6.02;43.72;100320.13;6296196;28;20109;-71
2022/04/04 10:32:23;;;;;;;9.13;5.53;;;;;;;6.14;43.41;100318.81;6295778;28;20044;-71
2022/04/04 10:35:27;;;;;;;7.68;5.03;;;;;;;6.19;44.23;100319.47;6294407;28;20050;-71
2022/04/04 10:38:30;;;;;;;8.63;5.10;;;;;;;6.16;42.81;100321.34;6293835;28;20044;-71
2022/04/04 10:41:32;;;;;;;12.05;6.03;;;;;;;6.28;42.86;100318.28;6295449;28;20036;-71
2022/04/04 10:44:47;;;;;;;9.88;5.25;;;;;;;6.13;42.66;100313.69;6275033;28;20040;-72
2022/04/04 10:47:48;;;;;;;8.27;4.88;;;;;;;5.93;43.84;100309.22;6319069;28;20044;-71
2022/04/04 10:50:51;;;;;;;9.18;5.28;;;;;;;6.65;42.63;100309.88;6302878;28;20055;-71
2022/04/04 10:53:57;;;;;;;7.85;4.75;;;;;;;7.05;40.09;100307.38;6300799;28;20041;-71
2022/04/04 10:56:59;;;;;;;10.45;4.97;;;;;;;7.76;42.18;100296.50;6306194;28;20077;-71
2022/04/04 11:00:05;;;;;;;12.20;5.13;;;;;;;7.04;40.15;100301.38;6320085;28;20051;-72
2022/04/04 11:03:10;;;;;;;11.00;4.70;;;;;;;7.12;40.60;100287.19;6316988;28;20058;-71
2022/04/04 11:09:46;;;;;;;9.43;5.10;;;;;;;9.08;39.09;100296.22;6293695;28;20051;-71
2022/04/04 11:13:17;;;;;;;6.97;4.53;;;;;;;8.74;36.09;100289.28;6303660;28;20242;-72
2022/04/04 11:16:18;;;;;;;6.80;4.38;;;;;;;7.99;37.97;100292.84;6305215;28;20534;-71
2022/04/04 11:19:19;;;;;;;8.48;4.68;;;;;;;7.37;37.93;100284.38;6297888;28;20044;-71
2022/04/04 11:22:27;;;;;;;9.88;5.05;;;;;;;6.92;39.56;100285.44;6301804;28;20045;-71
2022/04/04 11:25:34;;;;;;;9.88;4.90;;;;;;;6.82;39.94;100288.44;6294178;28;20110;-72
2022/04/04 11:28:38;;;;;;;8.88;4.63;;;;;;;6.33;42.31;100279.22;6303230;28;20051;-72
2022/04/04 11:31:48;;;;;;;8.40;4.05;;;;;;;6.09;42.52;100287.03;6319307;28;20081;-71
2022/04/04 11:34:50;;;;;;;9.35;5.40;;;;;;;6.43;42.09;100285.72;6282969;28;20064;-71
2022/04/04 11:37:56;;;;;;;5.32;4.13;;;;;;;5.89;41.83;100279.16;6293022;28;20439;-71
2022/04/04 11:40:57;;;;;;;8.05;4.68;;;;;;;6.55;42.21;100280.06;6285939;28;20070;-72
2022/04/04 11:43:58;;;;;;;8.50;5.18;;;;;;;6.88;40.58;100278.69;6299582;28;20485;-71
2022/04/04 11:47:06;;;;;;;7.22;4.85;;;;;;;6.73;41.63;100283.63;6294819;28;20043;-73
2022/04/04 11:50:08;;;;;;;8.32;4.72;;;;;;;6.66;41.11;100279.59;6307144;28;20123;-73
2022/04/04 11:53:11;;;;;;;13.00;5.57;;;;;;;6.66;41.09;100272.66;6319586;28;20480;-72
2022/04/04 11:56:21;;;;;;;6.30;4.45;;;;;;;6.39;41.50;100264.28;6314892;28;20057;-72
2022/04/04 11:59:21;;;;;;;8.02;5.10;;;;;;;6.32;42.79;100262.84;6296529;28;20040;-71
2022/04/04 12:02:23;;;;;;;8.57;4.38;;;;;;;6.34;40.52;100258.44;6299144;28;20128;-71
2022/04/04 12:05:25;;;;;;;8.50;4.22;;;;;;;6.49;39.82;100254.38;6300218;28;20040;-71
2022/04/04 12:08:27;;;;;;;6.65;4.07;;;;;;;6.66;42.26;100248.50;6299719;28;20059;-71
2022/04/04 12:11:28;;;;;;;11.32;5.00;;;;;;;6.37;42.75;100247.94;6284654;28;20056;-71
2022/04/04 12:14:37;;;;;;;12.00;4.97;;;;;;;6.20;40.40;100248.63;6299904;28;20042;-71
2022/04/04 12:17:38;;;;;;;7.30;4.68;;;;;;;6.00;42.86;100241.63;6315385;28;20422;-71
2022/04/04 12:20:50;;;;;;;8.98;4.30;;;;;;;6.58;41.23;100247.97;6323769;28;20047;-71
2022/04/04 12:27:13;;;;;;;8.80;4.30;;;;;;;6.48;43.58;100237.13;6324913;28;20078;-72
2022/04/04 12:30:14;;;;;;;6.53;4.32;;;;;;;6.33;40.40;100228.22;6323641;28;20472;-71
2022/04/04 12:33:15;;;;;;;9.82;4.60;;;;;;;6.72;41.51;100219.72;6323582;28;20036;-71
2022/04/04 12:36:28;;;;;;;6.40;3.97;;;;;;;7.13;40.64;100224.88;6332502;28;20432;-72
2022/04/04 12:39:29;;;;;;;6.65;4.15;;;;;;;7.60;41.36;100221.88;6306010;28;20431;-71
2022/04/04 12:42:30;;;;;;;5.43;4.18;;;;;;;7.65;41.48;100217.31;6318001;28;20040;-72
2022/04/04 12:45:32;;;;;;;7.27;4.07;;;;;;;8.31;40.46;100209.91;6323463;28;20040;-72
2022/04/04 12:48:38;;;;;;;8.43;4.63;;;;;;;8.49;37.46;100203.81;6323410;28;20036;-72
2022/04/04 12:51:49;;;;;;;12.48;4.70;;;;;;;7.97;39.78;100201.13;6322726;28;20044;-72
2022/04/04 12:54:50;;;;;;;7.00;4.00;;;;;;;7.08;40.17;100185.28;6324218;28;20086;-71
2022/04/04 12:57:51;;;;;;;6.32;4.07;;;;;;;7.01;40.59;100197.69;6322935;28;20042;-71
2022/04/04 13:00:52;;;;;;;8.60;5.00;;;;;;;6.91;41.61;100192.97;6322493;28;20067;-72
2022/04/04 13:03:53;;;;;;;8.95;4.55;;;;;;;7.65;41.53;100187.91;6322083;28;20042;-72
2022/04/04 13:06:54;;;;;;;7.90;4.95;;;;;;;7.20;41.63;100174.34;6323156;28;20076;-72
2022/04/04 13:09:55;;;;;;;7.80;4.60;;;;;;;7.61;41.09;100169.03;6320630;28;20044;-72
2022/04/04 13:13:10;;;;;;;8.07;4.13;;;;;;;7.27;40.58;100169.75;6285571;28;20047;-72
2022/04/04 13:16:29;;;;;;;9.15;4.43;;;;;;;7.14;40.53;100160.81;6337434;28;20040;-73
2022/04/04 13:19:31;;;;;;;9.90;4.35;;;;;;;7.06;40.46;100151.66;6313179;28;20416;-72
2022/04/04 13:22:32;;;;;;;8.25;4.10;;;;;;;7.23;41.42;100152.63;6308953;28;20043;-72
2022/04/04 13:25:33;;;;;;;6.70;4.80;;;;;;;7.03;41.20;100140.56;6312098;28;20056;-72
2022/04/04 13:28:34;;;;;;;11.80;7.60;;;;;;;6.97;42.71;100135.66;6295936;28;20048;-72
2022/04/04 13:31:36;;;;;;;12.85;4.45;;;;;;;7.51;41.78;100149.59;6279204;28;20051;-72
2022/04/04 13:34:37;;;;;;;5.35;4.00;;;;;;;7.96;40.42;100131.88;6312765;28;20066;-76
2022/04/04 13:37:38;;;;;;;6.75;4.25;;;;;;;7.91;41.09;100128.66;6295566;28;20469;-76
2022/04/04 13:40:39;;;;;;;6.43;3.97;;;;;;;8.15;39.45;100116.22;6295692;28;20510;-77
2022/04/04 13:43:40;;;;;;;6.15;4.35;;;;;;;8.21;40.71;100113.31;6296867;28;20047;-76
2022/04/04 13:46:41;;;;;;;6.68;4.43;;;;;;;8.51;40.79;100115.34;6295713;28;20040;-76
2022/04/04 13:49:42;;;;;;;7.32;5.05;;;;;;;8.19;40.25;100113.38;6295417;28;20060;-76
2022/04/04 13:52:43;;;;;;;8.13;4.70;;;;;;;8.08;39.78;100103.53;6296527;28;20048;-76
2022/04/04 13:55:44;;;;;;;7.85;5.90;;;;;;;8.57;40.54;100096.81;6296550;28;20069;-76
2022/04/04 13:58:45;;;;;;;13.73;6.80;;;;;;;8.81;41.85;100089.47;6295171;28;20047;-76
2022/04/04 14:01:46;;;;;;;8.67;5.93;;;;;;;8.32;41.34;100089.38;6296464;28;20046;-77
2022/04/04 14:04:48;;;;;;;10.10;5.77;;;;;;;8.09;41.35;100078.38;6295117;28;20567;-77
2022/04/04 14:07:50;;;;;;;13.85;6.22;;;;;;;7.93;40.20;100073.13;6308542;28;20071;-76
2022/04/04 14:10:55;;;;;;;10.80;6.13;;;;;;;8.19;40.46;100064.00;6321829;28;20036;-76
2022/04/04 14:13:56;;;;;;;7.53;5.18;;;;;;;8.00;41.11;100066.69;6322523;28;20400;-76
2022/04/04 14:17:00;;;;;;;12.10;5.13;;;;;;;7.99;39.94;100056.38;6322753;28;20036;-77
2022/04/04 14:20:08;;;;;;;7.80;5.32;;;;;;;7.92;41.36;100053.25;6321017;28;20047;-76